createdAt,value
2019-05-15T00:02:43.434Z,4.30
2019-05-15T00:08:48.154Z,4.20
2019-05-15T00:14:52.788Z,4.00
2019-05-15T00:20:59.479Z,4.00
2019-05-15T00:27:03.823Z,3.90
2019-05-15T00:33:09.283Z,3.90
2019-05-15T00:39:13.959Z,3.70
2019-05-15T00:45:19.533Z,3.40
2019-05-15T00:51:24.101Z,3.10
2019-05-15T00:57:28.621Z,3.20
2019-05-15T01:03:33.163Z,3.10
2019-05-15T01:09:38.455Z,3.20
2019-05-15T01:15:43.227Z,3.10
2019-05-15T01:21:48.232Z,3.20
2019-05-15T01:27:53.180Z,3.30
2019-05-15T01:33:58.381Z,3.30
2019-05-15T01:40:03.061Z,3.20
2019-05-15T01:46:08.365Z,3.20
2019-05-15T01:52:13.263Z,3.20
2019-05-15T01:58:18.612Z,3.00
2019-05-15T02:04:23.570Z,2.90
2019-05-15T02:10:29.163Z,2.80
2019-05-15T02:16:34.092Z,2.60
2019-05-15T02:22:42.531Z,2.70
2019-05-15T02:28:45.149Z,2.70
2019-05-15T02:34:50.183Z,2.50
2019-05-15T02:40:54.962Z,2.50
2019-05-15T02:47:01.178Z,2.60
2019-05-15T02:53:09.493Z,2.50
2019-05-15T02:59:12.119Z,2.60
2019-05-15T03:05:19.374Z,2.50
2019-05-15T03:11:23.125Z,2.40
2019-05-15T03:17:29.725Z,2.30
2019-05-15T03:23:34.064Z,2.30
2019-05-15T03:29:40.354Z,2.40
2019-05-15T03:35:45.243Z,2.40
2019-05-15T03:41:49.900Z,2.40
2019-05-15T03:47:54.514Z,2.40
2019-05-15T03:54:00.348Z,2.50
2019-05-15T04:00:09.599Z,2.50
2019-05-15T04:06:13.951Z,2.50
2019-05-15T04:12:19.633Z,2.60
2019-05-15T04:18:24.462Z,2.70
2019-05-15T04:24:31.407Z,2.80
2019-05-15T04:30:38.934Z,3.00
2019-05-15T04:36:44.836Z,3.40
2019-05-15T04:42:49.966Z,3.60
2019-05-15T04:48:54.641Z,3.90
2019-05-15T04:54:59.864Z,4.10
2019-05-15T05:01:08.975Z,4.40
2019-05-15T05:07:12.324Z,4.70
2019-05-15T05:13:19.432Z,4.90
2019-05-15T05:19:23.288Z,5.10
2019-05-15T05:25:28.054Z,5.20
2019-05-15T05:31:32.665Z,5.30
2019-05-15T05:37:38.899Z,5.50
2019-05-15T05:43:44.137Z,5.60
2019-05-15T05:49:48.936Z,5.80
2019-05-15T05:55:58.048Z,6.10
2019-05-15T06:02:03.037Z,6.10
2019-05-15T06:08:08.896Z,6.30
2019-05-15T06:14:13.438Z,6.30
2019-05-15T06:20:18.590Z,6.50
2019-05-15T06:26:23.274Z,6.90
2019-05-15T06:32:28.909Z,7.40
2019-05-15T06:38:33.713Z,7.70
2019-05-15T06:44:38.790Z,8.00
2019-05-15T06:50:43.760Z,8.20
2019-05-15T06:56:49.284Z,8.40
2019-05-15T07:02:54.069Z,8.90
2019-05-15T07:08:58.954Z,9.30
2019-05-15T07:15:05.113Z,9.60
2019-05-15T07:21:10.613Z,10.10
2019-05-15T07:27:15.364Z,10.50
2019-05-15T07:33:35.317Z,10.60
2019-05-15T07:39:28.706Z,10.80
2019-05-15T07:45:32.584Z,11.50
2019-05-15T07:51:38.179Z,12.10
2019-05-15T07:57:42.866Z,12.70
2019-05-15T08:03:58.678Z,12.90
2019-05-15T08:09:53.806Z,13.10
2019-05-15T08:15:58.397Z,13.40
2019-05-15T08:22:08.743Z,13.60
2019-05-15T08:28:12.593Z,13.40
2019-05-15T08:34:19.489Z,13.00
2019-05-15T08:40:23.770Z,13.50
2019-05-15T08:46:28.412Z,14.00
2019-05-15T08:52:33.050Z,14.10
2019-05-15T08:58:39.057Z,13.90
2019-05-15T09:04:43.624Z,13.60
2019-05-15T09:10:50.220Z,13.80
2019-05-15T09:16:54.786Z,14.10
2019-05-15T09:22:59.343Z,14.10
2019-05-15T09:29:09.150Z,14.50
2019-05-15T09:35:18.598Z,14.90
2019-05-15T09:41:28.731Z,15.20
2019-05-15T09:47:33.378Z,15.80
2019-05-15T09:53:39.449Z,15.70
2019-05-15T09:59:44.218Z,16.20
2019-05-15T10:05:51.681Z,16.30
2019-05-15T10:11:56.250Z,16.10
2019-05-15T10:18:04.064Z,16.70
2019-05-15T10:24:13.516Z,16.80
2019-05-15T10:30:19.161Z,16.50
2019-05-15T10:36:23.765Z,16.80
2019-05-15T10:42:29.393Z,17.30
2019-05-15T10:48:34.008Z,17.10
2019-05-15T10:54:39.414Z,17.60
2019-05-15T11:00:48.988Z,17.20
2019-05-15T11:06:53.906Z,16.70
2019-05-15T11:13:00.997Z,16.40
2019-05-15T11:19:07.899Z,16.50
2019-05-15T11:25:12.436Z,16.20
2019-05-15T11:31:17.075Z,16.10
2019-05-15T11:37:21.807Z,15.80
2019-05-15T11:43:29.220Z,15.40
2019-05-15T11:49:38.263Z,15.60
2019-05-15T11:55:42.315Z,15.00
2019-05-15T12:01:48.921Z,15.20
2019-05-15T12:07:54.635Z,15.50
2019-05-15T12:13:59.729Z,15.20
2019-05-15T12:20:07.096Z,15.20
2019-05-15T12:26:12.512Z,15.20
2019-05-15T12:32:28.469Z,15.20
2019-05-15T12:38:23.483Z,15.20
2019-05-15T13:02:49.170Z,15.10
2019-05-15T13:08:53.885Z,15.30
2019-05-15T13:14:59.086Z,15.50
2019-05-15T13:21:03.860Z,15.80
2019-05-15T13:27:08.426Z,15.70
2019-05-15T13:33:12.983Z,15.70
2019-05-15T13:39:18.390Z,15.70
2019-05-15T13:45:23.436Z,15.80
2019-05-15T13:51:29.022Z,15.90
2019-05-15T13:57:33.813Z,15.90
2019-05-15T14:03:39.037Z,15.80
2019-05-15T14:09:44.743Z,15.30
2019-05-15T14:15:49.565Z,15.30
2019-05-15T14:21:54.199Z,15.20
2019-05-15T14:27:59.611Z,15.20
2019-05-15T14:34:04.553Z,15.30
2019-05-15T14:40:09.910Z,15.30
2019-05-15T14:46:14.729Z,15.10
2019-05-15T14:52:19.345Z,15.20
2019-05-15T14:58:23.905Z,15.30
2019-05-15T15:04:29.149Z,15.30
2019-05-15T15:10:33.789Z,14.90
2019-05-15T15:16:38.640Z,14.90
2019-05-15T15:22:43.296Z,14.80
2019-05-15T15:28:48.897Z,14.90
2019-05-15T15:34:53.739Z,15.00
2019-05-15T15:41:00.484Z,15.10
2019-05-15T15:47:04.789Z,15.20
2019-05-15T15:53:09.442Z,15.40
2019-05-15T15:59:14.010Z,15.40
2019-05-15T16:05:19.180Z,15.40
2019-05-15T16:11:23.946Z,15.10
2019-05-15T16:17:28.754Z,15.10
2019-05-15T16:23:33.286Z,15.00
2019-05-15T16:29:39.259Z,14.80
2019-05-15T16:35:44.084Z,14.70
2019-05-15T16:41:49.123Z,14.70
2019-05-15T16:47:53.804Z,14.40
2019-05-15T16:53:58.381Z,14.20
2019-05-15T17:00:03.008Z,14.20
2019-05-15T17:06:09.458Z,14.20
2019-05-15T17:12:14.097Z,14.10
2019-05-15T17:18:18.666Z,14.00
2019-05-15T17:24:23.253Z,14.00
2019-05-15T17:30:28.773Z,14.00
2019-05-15T17:36:33.466Z,13.70
2019-05-15T17:42:38.830Z,13.70
2019-05-15T17:48:43.937Z,13.60
2019-05-15T17:54:49.142Z,13.60
2019-05-15T18:00:54.021Z,13.60
2019-05-15T18:06:59.206Z,13.50
2019-05-15T18:13:03.915Z,13.50
2019-05-15T18:19:08.736Z,13.40
2019-05-15T18:25:13.436Z,13.20
2019-05-15T18:31:18.263Z,13.20
2019-05-15T18:37:22.928Z,13.10
2019-05-15T18:43:28.477Z,13.10
2019-05-15T18:49:33.207Z,13.00
2019-05-15T18:55:38.549Z,13.00
2019-05-15T19:01:43.372Z,12.80
2019-05-15T19:07:48.724Z,12.50
2019-05-15T19:13:53.523Z,12.40
2019-05-15T19:19:58.754Z,12.10
2019-05-15T19:26:03.485Z,11.90
2019-05-15T19:32:10.988Z,12.00
2019-05-15T19:38:14.530Z,12.10
2019-05-15T19:44:19.241Z,12.10
2019-05-15T19:50:23.946Z,12.20
2019-05-15T19:56:28.646Z,12.20
2019-05-15T20:02:33.207Z,12.10
2019-05-15T20:08:38.590Z,11.90
2019-05-15T20:14:43.311Z,11.70
2019-05-15T20:20:47.926Z,11.60
2019-05-15T20:26:52.492Z,11.50
2019-05-15T20:32:58.555Z,11.40
2019-05-15T20:39:03.535Z,11.40
2019-05-15T20:45:12.341Z,11.20
2019-05-15T20:51:15.586Z,11.00
2019-05-15T20:57:20.319Z,10.90
2019-05-15T21:03:25.015Z,11.00
2019-05-15T21:09:30.691Z,11.00
2019-05-15T21:15:35.567Z,11.10
2019-05-15T21:21:40.130Z,11.10
2019-05-15T21:27:44.713Z,11.00
2019-05-15T21:33:50.416Z,11.00
2019-05-15T21:39:55.118Z,11.00
2019-05-15T21:46:01.227Z,11.10
2019-05-15T21:52:05.827Z,11.10
2019-05-15T21:58:10.451Z,10.90
2019-05-15T22:04:15.203Z,10.80
2019-05-15T22:10:19.904Z,10.80
2019-05-15T22:16:24.874Z,10.90
2019-05-15T22:22:29.413Z,10.90
2019-05-15T22:28:34.044Z,10.90
2019-05-15T22:34:38.587Z,11.00
2019-05-15T22:40:43.686Z,10.90
2019-05-15T22:46:48.733Z,10.80
2019-05-15T22:52:53.592Z,10.80
2019-05-15T22:58:58.475Z,10.80
2019-05-15T23:05:03.337Z,10.70
2019-05-15T23:11:09.473Z,10.60
2019-05-15T23:17:14.372Z,10.60
2019-05-15T23:23:18.914Z,10.50
2019-05-15T23:29:25.386Z,10.60
2019-05-15T23:35:37.936Z,10.40
2019-05-15T23:41:36.127Z,10.30
2019-05-15T23:47:40.810Z,10.10
2019-05-15T23:53:45.342Z,10.10
2019-05-15T23:59:49.892Z,10.00
